createdAt,value
2023-03-02T06:56:41.104Z,30.75
2023-03-02T09:13:50.606Z,30.08
2023-03-02T09:50:41.229Z,26.52
2023-03-02T10:03:05.111Z,26.08
2023-03-02T10:05:43.376Z,28.05
2023-03-02T10:15:05.558Z,26.08
2023-03-02T10:17:57.380Z,28.38
2023-03-02T10:20:37.044Z,26.10
2023-03-02T10:23:51.045Z,26.05
2023-03-02T10:29:51.148Z,24.60
2023-03-02T10:32:33.650Z,23.70
2023-03-02T10:35:54.756Z,25.58
2023-03-02T10:38:31.011Z,24.27
2023-03-02T10:41:11.058Z,25.85
2023-03-02T10:43:40.842Z,26.02
2023-03-02T10:46:13.933Z,25.67
2023-03-02T10:49:07.973Z,24.45
2023-03-02T10:51:39.590Z,25.25
2023-03-02T10:54:15.266Z,24.17
2023-03-02T10:56:54.776Z,23.67
2023-03-02T10:59:43.775Z,23.42
2023-03-02T11:02:32.253Z,23.92
2023-03-02T11:05:20.632Z,22.50
2023-03-02T11:08:08.995Z,23.98
2023-03-02T11:10:59.875Z,22.23
2023-03-02T11:13:38.222Z,22.30
2023-03-02T11:16:29.446Z,24.23
2023-03-02T11:19:16.048Z,21.83
2023-03-02T11:22:03.990Z,21.15
2023-03-02T11:24:39.319Z,23.38
2023-03-02T11:27:38.901Z,23.15
2023-03-02T11:30:24.622Z,21.73
2023-03-02T11:33:20.886Z,21.33
2023-03-02T11:35:50.858Z,22.33
2023-03-02T11:41:26.094Z,21.98
2023-03-02T11:47:14.974Z,20.73
2023-03-02T11:50:08.761Z,20.67
2023-03-02T11:58:56.612Z,20.33
2023-03-02T12:01:53.590Z,19.92
2023-03-02T12:04:48.058Z,20.60
2023-03-02T12:07:29.483Z,19.88
2023-03-02T12:10:41.092Z,19.85
2023-03-02T12:19:38.204Z,20.95
2023-03-02T12:22:17.432Z,19.30
2023-03-02T12:25:04.794Z,20.17
2023-03-02T12:27:41.924Z,20.98
2023-03-02T12:33:29.850Z,20.95
2023-03-02T12:36:25.198Z,20.10
2023-03-02T12:42:28.246Z,20.98
2023-03-02T12:45:27.343Z,19.08
2023-03-02T12:48:15.464Z,19.33
2023-03-02T12:50:49.730Z,19.30
2023-03-02T12:53:34.128Z,20.05
2023-03-02T12:56:08.068Z,20.88
2023-03-02T12:58:39.822Z,19.33
2023-03-02T13:01:27.658Z,19.58
2023-03-02T13:07:02.217Z,19.42
2023-03-02T13:09:47.782Z,19.08
2023-03-02T13:12:26.211Z,18.20
2023-03-02T13:14:57.602Z,19.50
2023-03-02T13:20:10.542Z,19.17
2023-03-02T13:23:00.895Z,20.30
2023-03-02T13:25:53.114Z,21.08
2023-03-02T13:28:40.882Z,20.73
2023-03-02T13:31:21.289Z,21.88
2023-03-02T13:33:55.216Z,20.40
2023-03-02T13:36:26.078Z,20.13
2023-03-02T13:38:57.206Z,21.02
2023-03-02T13:41:31.803Z,20.77
2023-03-02T13:44:00.831Z,21.67
2023-03-02T13:46:39.317Z,20.60
2023-03-02T13:49:12.994Z,20.13
2023-03-02T13:51:49.127Z,21.45
2023-03-02T13:54:26.957Z,20.55
2023-03-02T13:56:58.295Z,19.73
2023-03-02T14:02:00.649Z,19.45
2023-03-02T14:04:39.341Z,20.20
2023-03-02T14:07:16.188Z,21.10
2023-03-02T14:09:49.061Z,20.35
2023-03-02T14:12:37.955Z,21.25
2023-03-02T14:15:16.168Z,20.80
2023-03-02T14:18:02.411Z,20.02
2023-03-02T14:20:36.453Z,19.08
2023-03-02T14:23:10.380Z,20.70
2023-03-02T14:25:38.274Z,20.40
2023-03-02T14:28:11.709Z,22.15
2023-03-02T14:30:58.458Z,20.30
2023-03-02T14:33:35.499Z,21.92
2023-03-02T14:36:29.518Z,21.63
2023-03-02T14:39:11.173Z,20.65
2023-03-02T14:41:59.891Z,21.63
2023-03-02T14:44:29.055Z,21.73
2023-03-02T14:47:01.952Z,20.95
2023-03-02T14:49:30.309Z,21.45
2023-03-02T14:52:09.933Z,21.48
2023-03-02T14:54:48.325Z,22.50
2023-03-02T14:57:26.811Z,21.80
2023-03-02T14:59:57.477Z,22.10
2023-03-02T15:02:28.914Z,20.38
2023-03-02T15:07:55.890Z,22.25
2023-03-02T15:10:27.624Z,22.02
2023-03-02T15:12:57.618Z,22.13
2023-03-02T15:15:28.500Z,21.95
2023-03-02T15:18:08.565Z,21.20
2023-03-02T15:20:55.978Z,21.98
2023-03-02T15:23:26.194Z,23.52
2023-03-02T15:25:54.064Z,21.80
2023-03-02T15:28:26.505Z,22.00
2023-03-02T15:30:54.507Z,21.88
2023-03-02T15:33:24.333Z,22.25
2023-03-02T15:35:55.283Z,22.02
2023-03-02T15:38:28.417Z,21.75
2023-03-02T15:41:16.868Z,22.63
2023-03-02T15:43:54.723Z,23.23
2023-03-02T15:46:28.560Z,23.52
2023-03-02T15:48:56.702Z,22.30
2023-03-02T15:51:29.048Z,22.73
2023-03-02T15:54:03.447Z,21.60
2023-03-02T15:56:58.487Z,20.58
2023-03-02T15:59:58.790Z,21.50
2023-03-02T16:02:31.805Z,20.52
2023-03-02T16:05:10.297Z,21.52
2023-03-02T16:07:39.300Z,21.90
2023-03-02T16:10:17.935Z,20.83
2023-03-02T16:12:46.297Z,19.55
2023-03-02T16:15:15.283Z,21.20
2023-03-02T16:17:44.774Z,19.77
2023-03-02T16:20:14.839Z,20.73
2023-03-02T16:22:42.875Z,17.95
2023-03-02T16:25:17.309Z,19.27
2023-03-02T16:28:08.537Z,18.88
2023-03-02T16:30:39.203Z,18.38
2023-03-02T16:33:10.252Z,19.00
2023-03-02T16:35:39.826Z,18.70
2023-03-02T16:38:11.173Z,18.30
2023-03-02T16:40:41.425Z,18.63
2023-03-02T16:43:18.740Z,17.50
2023-03-02T16:45:50.801Z,18.90
2023-03-02T16:48:21.968Z,17.63
2023-03-02T16:51:01.556Z,15.73
2023-03-02T16:53:44.702Z,16.50
2023-03-02T16:56:15.682Z,18.15
2023-03-02T16:58:44.184Z,16.25
2023-03-02T17:01:19.555Z,16.38
2023-03-02T17:04:00.820Z,15.88
2023-03-02T17:06:29.779Z,16.10
2023-03-02T17:09:02.096Z,16.83
2023-03-02T17:11:54.518Z,15.95
2023-03-02T17:14:30.504Z,14.52
2023-03-02T17:17:03.152Z,14.00
2023-03-02T17:19:30.952Z,14.50
2023-03-02T17:22:00.937Z,15.02
2023-03-02T17:24:31.404Z,13.27
2023-03-02T17:27:02.462Z,13.63
2023-03-02T17:29:30.109Z,13.68
2023-03-02T17:31:58.267Z,13.00
2023-03-02T17:34:36.534Z,14.02
2023-03-02T17:37:07.447Z,13.38
2023-03-02T17:39:37.639Z,12.63
2023-03-02T17:42:07.046Z,13.25
2023-03-02T17:44:35.917Z,12.63
2023-03-02T17:47:10.371Z,14.00
2023-03-02T17:49:41.658Z,13.10
2023-03-02T17:52:42.767Z,13.00
2023-03-02T17:55:11.186Z,12.68
2023-03-02T17:57:55.617Z,13.05
2023-03-02T18:00:24.731Z,13.52
2023-03-02T18:02:55.053Z,11.77
2023-03-02T18:05:23.673Z,13.95
2023-03-02T18:07:54.118Z,12.70
2023-03-02T18:10:33.288Z,13.70
2023-03-02T18:13:11.564Z,11.32
2023-03-02T18:15:41.901Z,13.25
2023-03-02T18:18:11.659Z,13.68
2023-03-02T18:20:49.547Z,13.20
2023-03-02T18:24:04.124Z,12.10
2023-03-02T18:29:29.182Z,12.40
2023-03-02T18:35:05.243Z,12.35
2023-03-02T18:37:37.181Z,12.75
2023-03-02T18:40:05.455Z,12.88
2023-03-02T18:42:40.550Z,12.80
2023-03-02T18:45:23.426Z,12.90
2023-03-02T18:47:54.501Z,12.60
2023-03-02T18:50:37.701Z,13.00
2023-03-02T18:53:12.956Z,13.77
2023-03-02T18:55:42.016Z,14.02
2023-03-02T18:58:17.565Z,14.68
2023-03-02T19:01:01.652Z,14.77
2023-03-02T19:03:29.703Z,13.75
2023-03-02T19:05:58.283Z,14.43
2023-03-02T19:08:32.568Z,14.50
2023-03-02T19:11:01.496Z,14.75
2023-03-02T19:13:41.277Z,13.60
2023-03-02T19:16:10.649Z,15.35
2023-03-02T19:18:41.384Z,14.50
2023-03-02T19:21:37.389Z,14.75
2023-03-02T19:24:06.337Z,15.40
2023-03-02T19:26:53.623Z,16.30
2023-03-02T19:30:03.303Z,15.95
2023-03-02T19:32:33.936Z,15.50
2023-03-02T19:38:15.707Z,14.90
2023-03-02T19:40:48.949Z,15.85
2023-03-02T19:43:25.417Z,14.50
2023-03-02T19:46:03.337Z,16.50
2023-03-02T19:48:47.121Z,15.07
2023-03-02T19:51:17.351Z,17.25
2023-03-02T19:53:50.130Z,14.43
2023-03-02T19:56:19.440Z,15.07
2023-03-02T19:59:19.931Z,16.52
2023-03-02T20:01:53.139Z,15.88
2023-03-02T20:04:27.103Z,16.02
2023-03-02T20:13:21.937Z,16.30
2023-03-02T20:16:04.205Z,16.10
2023-03-02T20:19:14.213Z,15.15
2023-03-02T20:27:55.670Z,17.10
2023-03-02T20:30:34.477Z,17.40
2023-03-02T20:33:07.482Z,17.58
2023-03-02T20:36:04.345Z,15.68
2023-03-02T20:38:45.357Z,15.00
2023-03-02T20:41:24.926Z,16.13
2023-03-02T20:44:14.158Z,17.77
2023-03-02T20:49:59.627Z,16.25
2023-03-02T20:52:29.956Z,17.63
2023-03-02T20:55:03.128Z,17.70
2023-03-02T21:03:40.086Z,20.23
2023-03-02T21:06:10.894Z,17.77
2023-03-02T21:08:43.003Z,19.40
2023-03-02T21:11:13.580Z,18.92
2023-03-02T21:13:48.576Z,17.15
2023-03-02T21:16:37.959Z,18.77
2023-03-02T21:35:32.217Z,21.45
2023-03-02T21:38:06.107Z,21.55
2023-03-02T21:40:44.390Z,22.38
2023-03-02T21:43:29.156Z,19.30
2023-03-02T21:46:02.573Z,21.73
2023-03-02T21:48:32.191Z,20.00
2023-03-02T21:51:49.801Z,18.45
2023-03-02T21:55:08.933Z,17.40
2023-03-02T21:57:58.425Z,18.95
2023-03-02T22:01:02.934Z,19.98
2023-03-02T22:03:52.286Z,18.30
2023-03-02T22:07:07.629Z,17.33
2023-03-02T22:10:22.624Z,15.43
2023-03-02T22:13:47.468Z,16.27
2023-03-02T22:16:34.414Z,16.33
2023-03-02T22:22:17.312Z,16.55
2023-03-02T22:24:50.221Z,17.70
2023-03-02T22:27:47.383Z,18.90
2023-03-02T22:30:49.491Z,18.65
2023-03-02T22:33:30.035Z,19.60
2023-03-02T22:36:08.964Z,18.88
2023-03-02T22:38:53.016Z,18.88
2023-03-02T22:41:52.467Z,17.20
2023-03-02T22:44:28.356Z,18.00
2023-03-02T22:47:07.073Z,17.95
2023-03-02T22:49:47.859Z,17.80
2023-03-02T22:52:23.031Z,18.13
2023-03-02T22:54:56.572Z,18.00
2023-03-02T22:57:35.105Z,18.50
2023-03-02T23:00:21.867Z,21.27
2023-03-02T23:03:00.979Z,19.02
2023-03-02T23:05:40.620Z,20.80
2023-03-02T23:08:27.528Z,19.98
2023-03-02T23:11:01.589Z,19.55
2023-03-02T23:13:39.635Z,21.20
2023-03-02T23:16:42.676Z,20.52
2023-03-02T23:19:55.085Z,18.02
2023-03-02T23:22:45.346Z,20.17
2023-03-02T23:25:35.506Z,20.02
2023-03-02T23:28:12.864Z,19.58
2023-03-02T23:31:15.842Z,17.80
2023-03-02T23:34:09.523Z,18.83
2023-03-02T23:36:45.716Z,17.95
2023-03-02T23:39:16.559Z,18.58
2023-03-02T23:41:54.819Z,18.17
2023-03-02T23:44:30.274Z,17.95
2023-03-02T23:47:00.282Z,17.92
2023-03-02T23:49:46.961Z,18.13
2023-03-02T23:52:23.478Z,17.00
2023-03-02T23:55:02.358Z,19.55
2023-03-02T23:57:33.898Z,18.17
